Hauptseite
METAR-TAF:

METAR-TAF

Flughäfen :

Brjansk, Russland

Breite: 53-15N, Länge: 034-19E, Höhe: 217 m

Beobachtung

Neuester Wetterbericht von vor 1 Stunde und 4 Minuten, um 15:00 UTC
Wind 4 kt aus West/Nordwest
Temperatur 1°C
Luftfeuchtigkeit 93%
Luftdruck 997 hPa
Sichtweite 10 km oder mehr
Aufgelockert bewölkt in der Höhe von 3000 ft, Kumulonimbus.

METAR: UUBP 241500Z 30002MPS 9999 SCT030CB 01/M00 Q0997 R34/190060 NOSIG RMK QFE731/0974

Zeit: 19:04 (16:04 UTC)

Prognose

Neuester Wetterbericht von vor 2 Stunden und 18 Minuten, um 13:46 UTC
Gültige Prognose vom 24 um 15 UTC bis 24 um 24 UTC
Wind 2 kt aus unterschiedlichen Richtungen
Sichtweite 10 km oder mehr
Durchbrochene Bewölkung in der Höhe von 1500 ft
Durchbrochene Bewölkung in der Höhe von 7000 ft

TAF: UUBP 241346Z 2415/2424 VRB01MPS 9999 BKN015 BKN070

Wetterbeobachtungen und Prognosen von mehr als 4000 Flughäfen (METAR und TAF Bericht).

Die verfügbaren Stationen werden durch gelbe und rote Markierungen auf der Karte dargestellt.

Führen Sie die Maus auf sie, um den Namen der Station zu sehen.

Darauf klicken, um die Beobachtung von Wetterbeobachtungen und Prognosen zu sehen.

Um die Karte zu ändern : klicken Sie auf den grünen Tasten mit einem schwarzen Kreuz Zum Vergrößern, auf den grünen Button mit einem Gedankenstrich zu verkleinern, oder auf die grünen Pfeile für benachbarte Karten.


METAR-TAF: